Time;durP1;ratioP1;P1;durP2;ratioP2;P2;SDS_P1;SDS_P2;PMS_P1;PMS_P2;Temp;Humidity;BMP_temperature;BMP_pressure;BME280_temperature;BME280_humidity;BME280_pressure;Samples;Min_cycle;Max_cycle;Signal;HPM_P1;HPM_P2
2022/03/13 00:00:49;;;;;;;58.65;27.05;;;;;;;;;;4974150;28;20733;-63
2022/03/13 00:03:16;;;;;;;58.38;25.45;;;;;;;;;;4974095;28;20027;-63
2022/03/13 00:05:45;;;;;;;57.63;26.83;;;;;;;;;;4974176;28;20034;-64
2022/03/13 00:08:18;;;;;;;53.20;26.83;;;;;;;;;;4973803;28;20035;-63
2022/03/13 00:10:53;;;;;;;50.28;24.80;;;;;;;;;;4974033;28;20106;-62
2022/03/13 00:13:19;;;;;;;52.38;26.05;;;;;;;;;;4973748;28;20023;-63
2022/03/13 00:15:49;;;;;;;54.83;25.60;;;;;;;;;;4973651;28;20404;-63
2022/03/13 00:18:15;;;;;;;52.35;25.50;;;;;;;;;;4973738;28;20534;-62
2022/03/13 00:20:41;;;;;;;49.60;23.98;;;;;;;;;;4973833;28;20031;-63
2022/03/13 00:23:07;;;;;;;64.60;26.83;;;;;;;;;;4973674;28;20026;-63
2022/03/13 00:25:34;;;;;;;58.15;25.35;;;;;;;;;;4973447;28;20042;-62
2022/03/13 00:28:00;;;;;;;62.97;25.30;;;;;;;;;;4973603;28;20062;-63
2022/03/13 00:30:26;;;;;;;50.30;25.00;;;;;;;;;;4973733;28;20027;-63
2022/03/13 00:32:52;;;;;;;59.35;25.42;;;;;;;;;;4973517;28;20073;-63
2022/03/13 00:35:18;;;;;;;56.75;24.60;;;;;;;;;;4973727;28;20057;-60
2022/03/13 00:37:44;;;;;;;51.70;23.75;;;;;;;;;;4973697;28;20300;-63
2022/03/13 00:40:12;;;;;;;54.83;24.02;;;;;;;;;;4973586;28;20049;-63
2022/03/13 00:42:38;;;;;;;48.40;22.77;;;;;;;;;;4973669;28;20026;-61
2022/03/13 00:45:05;;;;;;;53.75;22.92;;;;;;;;;;4973393;28;20034;-64
2022/03/13 00:47:31;;;;;;;51.28;23.77;;;;;;;;;;4973266;28;20022;-63
2022/03/13 00:49:57;;;;;;;48.38;22.00;;;;;;;;;;4973641;28;20026;-63
2022/03/13 00:52:23;;;;;;;52.28;23.52;;;;;;;;;;4973331;28;20035;-63
2022/03/13 00:54:49;;;;;;;50.20;22.38;;;;;;;;;;4973168;28;20026;-63
2022/03/13 00:57:17;;;;;;;51.13;22.52;;;;;;;;;;4973258;28;20041;-64
2022/03/13 00:59:44;;;;;;;44.80;22.30;;;;;;;;;;4973120;28;20381;-63
2022/03/13 01:02:10;;;;;;;41.22;21.00;;;;;;;;;;4973047;28;20387;-63
2022/03/13 01:04:37;;;;;;;41.72;20.80;;;;;;;;;;4973165;28;20486;-63
2022/03/13 01:07:03;;;;;;;40.70;19.95;;;;;;;;;;4973013;28;20027;-62
2022/03/13 01:09:29;;;;;;;41.03;20.30;;;;;;;;;;4972961;28;20030;-64
2022/03/13 01:11:55;;;;;;;50.25;23.08;;;;;;;;;;4972764;28;20031;-63
2022/03/13 01:14:23;;;;;;;43.10;20.77;;;;;;;;;;4972312;28;20106;-63
2022/03/13 01:16:59;;;;;;;42.97;20.40;;;;;;;;;;4972553;28;20030;-64
2022/03/13 01:19:25;;;;;;;39.47;20.35;;;;;;;;;;4972447;28;20027;-62
2022/03/13 01:21:51;;;;;;;40.42;20.33;;;;;;;;;;4972422;28;20501;-63
2022/03/13 01:24:18;;;;;;;39.75;20.38;;;;;;;;;;4972082;28;20546;-63
2022/03/13 01:26:47;;;;;;;38.03;18.52;;;;;;;;;;4971974;28;20330;-64
2022/03/13 01:29:14;;;;;;;43.50;18.70;;;;;;;;;;4971965;28;20430;-63
2022/03/13 01:31:42;;;;;;;39.55;19.30;;;;;;;;;;4972120;28;20031;-64
2022/03/13 01:34:10;;;;;;;35.38;18.95;;;;;;;;;;4972155;28;20019;-64
2022/03/13 01:36:36;;;;;;;39.05;18.45;;;;;;;;;;4972370;28;20490;-63
2022/03/13 01:39:03;;;;;;;39.97;19.27;;;;;;;;;;4972324;28;20023;-65
2022/03/13 01:41:30;;;;;;;36.33;17.88;;;;;;;;;;4972102;28;20033;-63
2022/03/13 01:43:57;;;;;;;38.85;19.23;;;;;;;;;;4971323;28;20514;-63
2022/03/13 01:46:23;;;;;;;38.83;19.10;;;;;;;;;;4972148;28;20077;-64
2022/03/13 01:48:52;;;;;;;36.75;19.48;;;;;;;;;;4971905;28;20033;-63
2022/03/13 01:51:18;;;;;;;37.08;19.15;;;;;;;;;;4972207;28;20550;-62
2022/03/13 01:53:44;;;;;;;40.35;18.80;;;;;;;;;;4971841;28;20074;-64
2022/03/13 01:56:11;;;;;;;39.55;18.55;;;;;;;;;;4971927;28;20038;-63
2022/03/13 01:58:37;;;;;;;38.95;18.17;;;;;;;;;;4971720;28;20489;-61
2022/03/13 02:01:03;;;;;;;37.45;18.48;;;;;;;;;;4971995;28;20086;-61
2022/03/13 02:03:29;;;;;;;31.08;16.02;;;;;;;;;;4971915;28;20546;-62
2022/03/13 02:05:55;;;;;;;36.03;17.75;;;;;;;;;;4971920;28;20435;-62
2022/03/13 02:08:22;;;;;;;36.25;19.17;;;;;;;;;;4972073;28;20054;-61
2022/03/13 02:10:49;;;;;;;43.95;20.45;;;;;;;;;;4971727;28;20475;-62
2022/03/13 02:13:18;;;;;;;41.92;19.08;;;;;;;;;;4971895;28;20031;-62
2022/03/13 02:15:45;;;;;;;34.42;17.20;;;;;;;;;;4971446;28;20047;-62
2022/03/13 02:18:11;;;;;;;41.55;19.90;;;;;;;;;;4971613;28;20101;-62
2022/03/13 02:20:41;;;;;;;45.13;19.92;;;;;;;;;;4971698;28;20031;-63
2022/03/13 02:23:24;;;;;;;36.80;18.70;;;;;;;;;;4971374;28;20042;-62
2022/03/13 02:25:51;;;;;;;42.95;19.88;;;;;;;;;;4971438;28;20039;-62
2022/03/13 02:28:22;;;;;;;37.67;19.38;;;;;;;;;;4971381;28;20142;-61
2022/03/13 02:30:48;;;;;;;41.67;20.25;;;;;;;;;;4971231;28;20048;-62
2022/03/13 02:33:17;;;;;;;40.83;18.90;;;;;;;;;;4971433;28;20029;-62
2022/03/13 02:35:48;;;;;;;39.78;17.60;;;;;;;;;;4971473;28;20047;-63
2022/03/13 02:38:14;;;;;;;35.90;16.48;;;;;;;;;;4971412;28;20019;-63
2022/03/13 02:40:41;;;;;;;35.03;17.92;;;;;;;;;;4971174;28;20034;-62
2022/03/13 02:43:07;;;;;;;39.97;19.25;;;;;;;;;;4971338;28;20625;-62
2022/03/13 02:45:34;;;;;;;45.40;21.05;;;;;;;;;;4971057;28;20084;-62
2022/03/13 02:48:01;;;;;;;42.10;20.42;;;;;;;;;;4971114;28;20031;-62
2022/03/13 02:50:27;;;;;;;43.70;20.63;;;;;;;;;;4971292;28;20019;-65
2022/03/13 02:52:54;;;;;;;37.47;18.80;;;;;;;;;;4970941;28;20026;-64
2022/03/13 02:55:20;;;;;;;38.65;18.80;;;;;;;;;;4971927;28;20125;-62
2022/03/13 02:57:47;;;;;;;43.60;20.25;;;;;;;;;;4975119;28;20122;-63
2022/03/13 03:00:15;;;;;;;37.25;18.60;;;;;;;;;;4975266;28;20042;-62
2022/03/13 03:02:41;;;;;;;38.25;17.80;;;;;;;;;;4976719;28;20113;-61
2022/03/13 03:05:08;;;;;;;33.55;16.30;;;;;;;;;;4976825;28;20548;-62
2022/03/13 03:07:35;;;;;;;40.67;19.35;;;;;;;;;;4974973;28;20480;-62
2022/03/13 03:10:01;;;;;;;35.10;17.10;;;;;;;;;;4975032;28;20097;-62
2022/03/13 03:12:27;;;;;;;36.22;15.43;;;;;;;;;;4975098;28;20360;-63
2022/03/13 03:14:54;;;;;;;32.95;16.02;;;;;;;;;;4974515;28;20470;-64
2022/03/13 03:17:20;;;;;;;33.25;15.52;;;;;;;;;;4974848;28;20034;-64
2022/03/13 03:19:46;;;;;;;40.65;17.77;;;;;;;;;;4974131;28;20030;-63
2022/03/13 03:22:12;;;;;;;35.80;17.05;;;;;;;;;;4973784;28;20033;-63
2022/03/13 03:24:38;;;;;;;36.20;18.13;;;;;;;;;;4973273;28;20035;-64
2022/03/13 03:27:04;;;;;;;37.13;17.92;;;;;;;;;;4973623;28;20030;-63
2022/03/13 03:29:30;;;;;;;38.70;18.95;;;;;;;;;;4973446;28;20256;-63
2022/03/13 03:31:57;;;;;;;39.08;18.13;;;;;;;;;;4955551;28;20410;-63
2022/03/13 03:34:25;;;;;;;37.85;18.27;;;;;;;;;;4973864;28;20023;-63
2022/03/13 03:36:58;;;;;;;42.70;18.08;;;;;;;;;;4973248;28;20133;-64
2022/03/13 03:39:25;;;;;;;38.53;19.33;;;;;;;;;;4972894;28;20034;-63
2022/03/13 03:41:53;;;;;;;42.92;18.67;;;;;;;;;;4973481;28;20050;-62
2022/03/13 03:44:20;;;;;;;38.70;17.95;;;;;;;;;;4972363;28;20430;-63
2022/03/13 03:46:47;;;;;;;39.63;19.35;;;;;;;;;;4973200;28;20049;-61
2022/03/13 03:49:13;;;;;;;42.92;19.52;;;;;;;;;;4972500;28;20026;-63
2022/03/13 03:51:39;;;;;;;42.88;20.65;;;;;;;;;;4974013;28;20035;-63
2022/03/13 03:54:06;;;;;;;45.20;21.08;;;;;;;;;;4973780;28;20159;-63
2022/03/13 03:56:32;;;;;;;41.10;20.58;;;;;;;;;;4974019;28;20042;-62
2022/03/13 03:58:58;;;;;;;40.63;20.25;;;;;;;;;;4974105;28;20034;-63
2022/03/13 04:01:24;;;;;;;40.17;19.70;;;;;;;;;;4974195;28;20051;-63
2022/03/13 04:03:50;;;;;;;45.92;21.08;;;;;;;;;;4973528;28;20027;-63
2022/03/13 04:06:17;;;;;;;37.67;18.77;;;;;;;;;;4973651;28;20503;-63
2022/03/13 04:08:43;;;;;;;37.67;19.58;;;;;;;;;;4973844;28;20025;-64
2022/03/13 04:11:09;;;;;;;49.45;21.20;;;;;;;;;;4973935;28;20054;-62
2022/03/13 04:13:39;;;;;;;42.95;20.70;;;;;;;;;;4973956;28;20023;-63
2022/03/13 04:16:07;;;;;;;45.80;21.85;;;;;;;;;;4973421;28;20058;-63
2022/03/13 04:18:33;;;;;;;42.42;19.73;;;;;;;;;;4973733;28;20035;-63
2022/03/13 04:20:59;;;;;;;41.55;20.40;;;;;;;;;;4973829;28;20038;-63
2022/03/13 04:23:26;;;;;;;42.60;20.55;;;;;;;;;;4973616;28;20034;-63
2022/03/13 04:25:53;;;;;;;42.63;20.48;;;;;;;;;;4973820;28;20031;-62
2022/03/13 04:28:19;;;;;;;46.50;21.77;;;;;;;;;;4973650;28;20229;-63
2022/03/13 04:30:47;;;;;;;51.20;21.65;;;;;;;;;;4973591;28;20030;-63
2022/03/13 04:33:16;;;;;;;42.85;21.33;;;;;;;;;;4973778;28;20027;-63
2022/03/13 04:35:42;;;;;;;47.78;22.98;;;;;;;;;;4973651;28;20031;-64
2022/03/13 04:38:08;;;;;;;46.45;21.75;;;;;;;;;;4973682;28;20110;-63
2022/03/13 04:40:34;;;;;;;47.30;21.38;;;;;;;;;;4973483;28;20027;-62
2022/03/13 04:43:02;;;;;;;40.60;20.65;;;;;;;;;;4973571;28;20035;-65
2022/03/13 04:45:28;;;;;;;45.97;21.65;;;;;;;;;;4973376;28;20033;-63
2022/03/13 04:47:55;;;;;;;40.65;19.98;;;;;;;;;;4973526;28;20516;-64
2022/03/13 04:50:21;;;;;;;42.47;20.48;;;;;;;;;;4973707;28;20368;-63
2022/03/13 04:52:47;;;;;;;41.90;20.55;;;;;;;;;;4973511;28;20093;-63
2022/03/13 04:55:13;;;;;;;46.40;21.42;;;;;;;;;;4973569;28;20031;-62
2022/03/13 04:57:39;;;;;;;46.20;20.75;;;;;;;;;;4973162;28;20049;-63
2022/03/13 05:00:06;;;;;;;43.42;19.70;;;;;;;;;;4973440;28;20031;-62
2022/03/13 05:02:32;;;;;;;43.08;19.65;;;;;;;;;;4973056;28;20034;-63
2022/03/13 05:04:59;;;;;;;38.38;19.35;;;;;;;;;;4972873;28;20046;-63
2022/03/13 05:07:27;;;;;;;39.70;19.77;;;;;;;;;;4973041;28;20015;-63
2022/03/13 05:09:53;;;;;;;40.85;19.77;;;;;;;;;;4972995;28;20394;-63
2022/03/13 05:12:21;;;;;;;37.08;18.70;;;;;;;;;;4972842;28;20041;-63
2022/03/13 05:14:47;;;;;;;38.28;18.38;;;;;;;;;;4972676;28;20050;-61
2022/03/13 05:17:13;;;;;;;42.88;18.95;;;;;;;;;;4972412;28;20042;-62
2022/03/13 05:19:39;;;;;;;39.13;19.52;;;;;;;;;;4954460;28;20027;-63
2022/03/13 05:22:05;;;;;;;37.55;18.92;;;;;;;;;;4972487;28;20037;-63
2022/03/13 05:24:32;;;;;;;38.65;19.33;;;;;;;;;;4972615;28;20070;-62
2022/03/13 05:26:58;;;;;;;37.08;19.55;;;;;;;;;;4972342;28;20039;-63
2022/03/13 05:29:24;;;;;;;37.47;18.52;;;;;;;;;;4972225;28;20034;-62
2022/03/13 05:31:50;;;;;;;37.35;18.35;;;;;;;;;;4972550;28;20026;-63
2022/03/13 05:34:16;;;;;;;33.20;17.30;;;;;;;;;;4972246;28;20027;-61
2022/03/13 08:13:49;;;;;;;137.55;57.63;;;;;;;;;;5066932;28;20391;-63
2022/03/13 08:16:17;;;;;;;73.13;34.22;;;;;;;;;;5047308;28;20484;-63
2022/03/13 08:18:43;;;;;;;57.58;27.80;;;;;;;;;;5047118;28;20040;-65
2022/03/13 08:21:09;;;;;;;46.03;22.45;;;;;;;;;;5047004;28;20032;-65
2022/03/13 08:23:35;;;;;;;48.90;22.27;;;;;;;;;;5047382;28;20104;-64
2022/03/13 08:26:01;;;;;;;64.00;27.80;;;;;;;;;;5047262;28;20033;-64
2022/03/13 08:28:27;;;;;;;58.55;25.95;;;;;;;;;;5046277;28;20024;-64
2022/03/13 08:30:53;;;;;;;41.25;19.77;;;;;;;;;;5047146;28;20120;-64
2022/03/13 08:33:20;;;;;;;34.40;18.05;;;;;;;;;;5046752;28;20401;-64
2022/03/13 08:35:46;;;;;;;48.42;22.48;;;;;;;;;;5047378;28;20105;-64
2022/03/13 08:38:12;;;;;;;47.88;21.08;;;;;;;;;;5047262;28;20032;-63
2022/03/13 08:40:38;;;;;;;48.30;20.38;;;;;;;;;;5046971;28;20068;-63
2022/03/13 08:43:05;;;;;;;59.40;27.98;;;;;;;;;;5046887;28;20463;-63
2022/03/13 08:45:31;;;;;;;48.88;23.33;;;;;;;;;;5045568;28;20048;-62
2022/03/13 08:47:58;;;;;;;36.70;18.25;;;;;;;;;;5046776;28;20029;-63
2022/03/13 08:50:24;;;;;;;30.58;15.70;;;;;;;;;;5046484;28;20096;-64
2022/03/13 08:52:50;;;;;;;39.95;17.63;;;;;;;;;;5078040;28;20518;-64
2022/03/13 08:55:18;;;;;;;39.38;20.45;;;;;;;;;;5046743;28;20021;-63
2022/03/13 08:57:45;;;;;;;40.92;20.25;;;;;;;;;;5046486;28;20484;-64
2022/03/13 09:00:14;;;;;;;43.78;21.10;;;;;;;;;;5046537;28;20535;-63
2022/03/13 09:02:40;;;;;;;37.60;18.17;;;;;;;;;;5046629;28;20025;-63
2022/03/13 09:05:06;;;;;;;37.85;17.75;;;;;;;;;;5046823;28;20021;-64
2022/03/13 09:07:32;;;;;;;34.75;17.80;;;;;;;;;;5046555;28;20040;-64
2022/03/13 09:09:59;;;;;;;32.80;17.02;;;;;;;;;;5078526;28;20025;-64
2022/03/13 09:12:25;;;;;;;32.90;15.27;;;;;;;;;;5078105;28;20068;-64
2022/03/13 09:14:51;;;;;;;32.17;17.23;;;;;;;;;;5046096;28;20033;-63
2022/03/13 09:17:17;;;;;;;55.08;25.50;;;;;;;;;;5046209;28;20028;-63
2022/03/13 09:19:43;;;;;;;37.33;16.95;;;;;;;;;;5046186;28;20060;-64
2022/03/13 09:22:13;;;;;;;30.33;14.98;;;;;;;;;;5046168;28;20029;-63
2022/03/13 09:24:39;;;;;;;46.10;21.65;;;;;;;;;;5035403;28;20029;-62
2022/03/13 09:27:05;;;;;;;22.67;11.93;;;;;;;;;;5032588;28;20461;-62
2022/03/13 09:29:31;;;;;;;20.77;11.00;;;;;;;;;;5032568;28;20033;-64
2022/03/13 09:31:57;;;;;;;23.38;10.68;;;;;;;;;;5032570;28;20038;-64
2022/03/13 09:34:24;;;;;;;22.05;10.80;;;;;;;;;;5032652;28;20469;-64
2022/03/13 09:36:50;;;;;;;18.15;9.32;;;;;;;;;;5032532;28;20029;-64
2022/03/13 09:39:16;;;;;;;15.52;7.80;;;;;;;;;;5032432;28;20033;-63
2022/03/13 09:41:43;;;;;;;17.73;8.80;;;;;;;;;;5031934;28;20075;-64
2022/03/13 09:44:09;;;;;;;16.50;9.00;;;;;;;;;;5032162;28;20094;-64
2022/03/13 09:46:36;;;;;;;20.95;9.70;;;;;;;;;;5032529;28;20017;-63
2022/03/13 09:49:02;;;;;;;19.15;10.77;;;;;;;;;;5032367;28;20021;-64
2022/03/13 09:51:28;;;;;;;17.17;9.65;;;;;;;;;;5031852;28;20028;-63
2022/03/13 09:53:54;;;;;;;36.25;16.00;;;;;;;;;;5032002;28;20033;-63
2022/03/13 09:56:20;;;;;;;29.98;14.40;;;;;;;;;;5032311;28;20029;-63
2022/03/13 09:58:47;;;;;;;26.83;15.23;;;;;;;;;;5063647;28;20393;-63
2022/03/13 10:01:13;;;;;;;32.28;15.82;;;;;;;;;;5032186;28;20123;-64
2022/03/13 10:03:39;;;;;;;29.63;15.40;;;;;;;;;;5032074;28;20032;-64
2022/03/13 10:06:06;;;;;;;25.85;13.70;;;;;;;;;;5032229;28;20033;-64
2022/03/13 10:08:32;;;;;;;28.15;14.02;;;;;;;;;;5031988;28;20018;-64
2022/03/13 10:10:59;;;;;;;27.08;13.45;;;;;;;;;;5032021;28;20431;-64
2022/03/13 10:13:33;;;;;;;30.95;17.50;;;;;;;;;;5031654;28;20501;-62
2022/03/13 10:16:00;;;;;;;29.35;14.98;;;;;;;;;;5031829;28;20072;-63
2022/03/13 10:18:26;;;;;;;29.63;15.70;;;;;;;;;;5032273;28;20189;-63
2022/03/13 10:20:53;;;;;;;30.23;14.32;;;;;;;;;;5031917;28;20120;-64
2022/03/13 10:23:20;;;;;;;36.58;16.98;;;;;;;;;;5031806;28;20022;-63
2022/03/13 10:25:49;;;;;;;35.03;16.75;;;;;;;;;;5031967;28;20026;-64
2022/03/13 10:28:15;;;;;;;27.63;14.90;;;;;;;;;;5031831;28;20103;-64
2022/03/13 10:30:42;;;;;;;21.60;11.52;;;;;;;;;;5031428;28;20064;-63
2022/03/13 10:33:08;;;;;;;26.08;13.50;;;;;;;;;;5031425;28;20033;-63
2022/03/13 10:35:38;;;;;;;29.60;11.70;;;;;;;;;;5030364;28;20039;-63
2022/03/13 10:38:14;;;;;;;24.63;12.50;;;;;;;;;;5031355;28;20032;-63
2022/03/13 10:40:40;;;;;;;24.58;12.88;;;;;;;;;;5031071;28;20021;-63
2022/03/13 10:43:07;;;;;;;39.65;17.08;;;;;;;;;;5031264;28;20616;-63
2022/03/13 10:45:38;;;;;;;56.47;23.10;;;;;;;;;;5031199;28;20017;-63
2022/03/13 10:48:32;;;;;;;43.10;17.60;;;;;;;;;;5031273;28;20025;-63
2022/03/13 10:51:02;;;;;;;21.60;12.38;;;;;;;;;;5028500;28;20033;-63
2022/03/13 10:53:28;;;;;;;29.90;12.95;;;;;;;;;;5031209;28;20108;-63
2022/03/13 10:56:00;;;;;;;24.73;12.52;;;;;;;;;;5031086;28;20029;-63
2022/03/13 10:58:35;;;;;;;24.23;12.43;;;;;;;;;;5031043;28;20096;-63
2022/03/13 11:01:05;;;;;;;23.27;12.75;;;;;;;;;;5030953;28;20025;-62
2022/03/13 11:03:35;;;;;;;24.50;12.40;;;;;;;;;;5031132;28;20033;-63
2022/03/13 11:06:02;;;;;;;27.77;13.35;;;;;;;;;;5030852;28;20029;-63
2022/03/13 11:08:28;;;;;;;19.55;11.70;;;;;;;;;;5031293;28;20026;-64
2022/03/13 11:10:56;;;;;;;20.58;10.90;;;;;;;;;;5062736;28;20033;-63
2022/03/13 11:13:27;;;;;;;16.70;9.48;;;;;;;;;;5030552;28;20049;-63
2022/03/13 11:15:55;;;;;;;20.13;10.50;;;;;;;;;;5030705;28;20061;-63
2022/03/13 11:18:23;;;;;;;19.70;10.55;;;;;;;;;;5030845;28;20480;-63
2022/03/13 11:20:49;;;;;;;19.27;9.85;;;;;;;;;;5030442;28;20036;-63
2022/03/13 11:23:17;;;;;;;16.83;10.43;;;;;;;;;;5030649;28;20040;-63
2022/03/13 11:25:44;;;;;;;18.60;9.40;;;;;;;;;;5030743;28;20033;-63
2022/03/13 11:28:10;;;;;;;18.10;10.27;;;;;;;;;;5030410;28;20075;-63
2022/03/13 11:30:37;;;;;;;14.88;8.38;;;;;;;;;;5030413;28;20080;-63
2022/03/13 11:33:04;;;;;;;18.90;9.77;;;;;;;;;;5030489;28;20088;-64
2022/03/13 11:35:31;;;;;;;18.48;10.27;;;;;;;;;;5030418;28;20032;-63
2022/03/13 11:38:24;;;;;;;19.95;10.63;;;;;;;;;;5030323;28;20045;-63
2022/03/13 11:40:50;;;;;;;18.02;10.40;;;;;;;;;;5029159;28;20099;-62
2022/03/13 11:43:20;;;;;;;19.08;11.00;;;;;;;;;;5030040;28;20037;-63
2022/03/13 11:45:49;;;;;;;18.50;10.00;;;;;;;;;;5029895;28;20029;-63
2022/03/13 11:48:19;;;;;;;19.27;10.00;;;;;;;;;;5030003;28;20025;-63
2022/03/13 11:50:48;;;;;;;15.98;9.57;;;;;;;;;;5029909;28;20024;-63
2022/03/13 11:53:15;;;;;;;16.83;9.88;;;;;;;;;;5030048;28;20033;-62
2022/03/13 11:56:02;;;;;;;19.70;10.55;;;;;;;;;;5030046;28;20691;-63
2022/03/13 11:58:47;;;;;;;20.10;10.50;;;;;;;;;;5030080;28;20512;-64
2022/03/13 12:01:20;;;;;;;21.02;10.55;;;;;;;;;;5029853;28;20025;-63
2022/03/13 12:04:10;;;;;;;20.15;11.25;;;;;;;;;;5030292;28;20049;-64
2022/03/13 12:06:39;;;;;;;28.65;14.95;;;;;;;;;;5026483;28;20041;-64
2022/03/13 12:09:08;;;;;;;20.42;12.35;;;;;;;;;;5030043;28;20424;-64
2022/03/13 12:11:38;;;;;;;24.35;12.55;;;;;;;;;;5061424;28;20033;-63
2022/03/13 12:14:08;;;;;;;28.75;14.95;;;;;;;;;;5030074;28;20492;-62
2022/03/13 12:16:35;;;;;;;23.55;12.07;;;;;;;;;;5029664;28;20042;-63
2022/03/13 12:19:02;;;;;;;27.67;13.15;;;;;;;;;;5029875;28;20366;-63
2022/03/13 12:21:28;;;;;;;28.02;13.93;;;;;;;;;;5029725;28;20535;-64
2022/03/13 12:23:56;;;;;;;27.27;13.82;;;;;;;;;;5029929;28;20045;-63
2022/03/13 12:26:34;;;;;;;56.95;25.67;;;;;;;;;;5029711;28;20024;-63
2022/03/13 12:29:00;;;;;;;35.92;17.63;;;;;;;;;;5029851;28;20025;-63
2022/03/13 12:31:26;;;;;;;30.25;17.08;;;;;;;;;;5029469;28;20029;-64
2022/03/13 12:33:53;;;;;;;30.23;16.30;;;;;;;;;;5029646;28;20083;-64
2022/03/13 12:36:20;;;;;;;39.40;18.50;;;;;;;;;;5061414;28;20029;-63
2022/03/13 12:38:49;;;;;;;35.78;16.35;;;;;;;;;;5029713;28;20025;-63
2022/03/13 12:41:15;;;;;;;46.97;20.17;;;;;;;;;;5029353;28;20468;-63
2022/03/13 12:43:52;;;;;;;37.90;18.20;;;;;;;;;;5029371;28;20025;-63
2022/03/13 12:46:21;;;;;;;27.92;15.52;;;;;;;;;;5029293;28;20049;-63
2022/03/13 12:48:54;;;;;;;34.15;14.55;;;;;;;;;;5029427;28;20030;-64
2022/03/13 12:51:35;;;;;;;28.65;14.07;;;;;;;;;;5029156;28;20031;-63
2022/03/13 12:54:03;;;;;;;27.52;13.90;;;;;;;;;;5029325;28;20485;-63
2022/03/13 12:56:30;;;;;;;37.67;17.88;;;;;;;;;;5029528;28;20029;-62
2022/03/13 12:58:57;;;;;;;43.88;19.92;;;;;;;;;;5030524;28;20029;-64
2022/03/13 13:01:23;;;;;;;30.25;16.15;;;;;;;;;;5033203;28;20033;-64
2022/03/13 13:03:50;;;;;;;27.15;14.82;;;;;;;;;;5033026;28;20017;-62
2022/03/13 13:06:35;;;;;;;26.05;14.85;;;;;;;;;;5033012;28;20029;-62
2022/03/13 13:09:02;;;;;;;28.92;14.35;;;;;;;;;;5033317;28;20021;-64
2022/03/13 13:11:33;;;;;;;24.95;13.63;;;;;;;;;;5031219;28;20047;-63
2022/03/13 13:14:01;;;;;;;23.98;13.25;;;;;;;;;;5032818;28;20029;-63
2022/03/13 13:16:35;;;;;;;24.50;13.45;;;;;;;;;;5032777;28;20018;-63
2022/03/13 13:19:01;;;;;;;23.60;13.50;;;;;;;;;;5032784;28;20052;-63
2022/03/13 13:21:40;;;;;;;31.08;15.25;;;;;;;;;;5032839;28;20025;-63
2022/03/13 13:24:43;;;;;;;29.83;15.05;;;;;;;;;;5064825;28;20584;-63
2022/03/13 13:27:09;;;;;;;26.42;15.27;;;;;;;;;;5032870;28;20103;-63
2022/03/13 13:29:36;;;;;;;25.90;13.80;;;;;;;;;;5032952;28;20033;-63
2022/03/13 13:32:17;;;;;;;41.45;20.17;;;;;;;;;;5032712;28;20068;-63
2022/03/13 13:35:02;;;;;;;22.23;12.88;;;;;;;;;;5032562;28;20022;-63
2022/03/13 13:37:29;;;;;;;30.70;15.52;;;;;;;;;;5032567;28;20029;-63
2022/03/13 13:40:05;;;;;;;23.27;13.23;;;;;;;;;;5032774;28;20057;-63
2022/03/13 13:42:32;;;;;;;20.75;11.60;;;;;;;;;;5064559;28;20495;-63
2022/03/13 13:45:01;;;;;;;26.13;13.38;;;;;;;;;;5032400;28;20368;-63
2022/03/13 13:47:28;;;;;;;19.63;11.63;;;;;;;;;;5032760;28;20048;-63
2022/03/13 13:49:54;;;;;;;22.90;12.93;;;;;;;;;;5032652;28;20247;-63
2022/03/13 13:52:28;;;;;;;22.52;12.73;;;;;;;;;;5032278;28;20026;-63
2022/03/13 13:54:54;;;;;;;24.77;12.85;;;;;;;;;;5032421;28;20025;-62
2022/03/13 13:57:21;;;;;;;35.10;15.80;;;;;;;;;;5032159;28;20033;-63
2022/03/13 13:59:47;;;;;;;31.25;14.55;;;;;;;;;;5064167;28;20024;-63
2022/03/13 14:02:18;;;;;;;22.35;12.20;;;;;;;;;;5064107;28;20120;-63
2022/03/13 14:04:47;;;;;;;36.58;18.20;;;;;;;;;;5031986;28;20032;-63
2022/03/13 14:07:14;;;;;;;31.23;15.27;;;;;;;;;;5032342;28;20029;-64
2022/03/13 14:09:40;;;;;;;38.42;18.38;;;;;;;;;;5031751;28;20026;-64
2022/03/13 14:12:07;;;;;;;47.50;20.42;;;;;;;;;;5031383;28;20041;-63
2022/03/13 14:14:33;;;;;;;27.23;14.77;;;;;;;;;;5031430;28;20048;-63
2022/03/13 14:16:59;;;;;;;23.08;11.98;;;;;;;;;;5031891;28;20087;-63
2022/03/13 14:19:30;;;;;;;18.80;11.18;;;;;;;;;;5031671;28;20453;-63
2022/03/13 14:21:57;;;;;;;23.25;11.40;;;;;;;;;;5031770;28;20025;-63
2022/03/13 14:24:23;;;;;;;23.27;11.52;;;;;;;;;;5031811;28;20052;-63
2022/03/13 14:26:50;;;;;;;20.50;11.25;;;;;;;;;;5031912;28;20025;-63
2022/03/13 14:29:17;;;;;;;20.50;11.25;;;;;;;;;;5031335;28;20053;-63
2022/03/13 14:31:43;;;;;;;21.25;12.10;;;;;;;;;;5031578;28;20071;-63
2022/03/13 14:34:09;;;;;;;25.30;11.38;;;;;;;;;;5031464;28;20029;-62
2022/03/13 14:36:35;;;;;;;22.45;11.32;;;;;;;;;;5031665;28;20022;-63
2022/03/13 14:39:02;;;;;;;20.83;10.68;;;;;;;;;;5031567;28;20496;-63
2022/03/13 14:41:28;;;;;;;17.95;9.95;;;;;;;;;;5031611;28;20017;-63
2022/03/13 14:43:55;;;;;;;18.35;10.68;;;;;;;;;;5031284;28;20018;-63
2022/03/13 14:46:22;;;;;;;21.00;10.90;;;;;;;;;;5031650;28;20025;-63
2022/03/13 14:48:49;;;;;;;21.38;11.82;;;;;;;;;;5031651;28;20030;-63
2022/03/13 14:51:15;;;;;;;19.67;10.80;;;;;;;;;;5031501;28;20065;-63
2022/03/13 14:53:41;;;;;;;25.35;12.35;;;;;;;;;;5031238;28;20030;-63
2022/03/13 14:56:09;;;;;;;24.08;10.70;;;;;;;;;;5031307;28;20037;-63
2022/03/13 14:58:36;;;;;;;22.70;11.20;;;;;;;;;;5031262;28;20556;-63
2022/03/13 15:01:03;;;;;;;21.67;11.52;;;;;;;;;;5031163;28;20531;-63
2022/03/13 15:03:29;;;;;;;22.85;11.98;;;;;;;;;;5031313;28;20053;-63
2022/03/13 15:05:55;;;;;;;22.75;12.38;;;;;;;;;;5031107;28;20048;-63
2022/03/13 15:08:25;;;;;;;22.60;12.15;;;;;;;;;;5030929;28;20022;-63
2022/03/13 15:10:51;;;;;;;26.05;13.35;;;;;;;;;;5062933;28;20101;-63
2022/03/13 15:13:18;;;;;;;32.20;14.98;;;;;;;;;;5030329;28;20429;-63
2022/03/13 15:15:46;;;;;;;41.40;18.02;;;;;;;;;;5030738;28;20101;-64
2022/03/13 15:18:12;;;;;;;70.53;25.23;;;;;;;;;;5030499;28;20140;-64
2022/03/13 15:20:38;;;;;;;35.10;15.10;;;;;;;;;;5030644;28;20517;-63
2022/03/13 15:23:04;;;;;;;42.97;18.17;;;;;;;;;;5030118;28;20025;-63
2022/03/13 15:25:31;;;;;;;50.78;20.08;;;;;;;;;;5030150;28;20029;-63
2022/03/13 15:27:57;;;;;;;46.13;19.23;;;;;;;;;;5030284;28;20025;-63
2022/03/13 15:30:24;;;;;;;22.13;11.93;;;;;;;;;;5030445;28;20489;-63
2022/03/13 15:32:50;;;;;;;29.23;14.68;;;;;;;;;;5061758;28;20132;-64
2022/03/13 15:35:16;;;;;;;29.73;14.40;;;;;;;;;;5029326;28;20071;-63
2022/03/13 15:37:44;;;;;;;24.40;12.10;;;;;;;;;;5030447;28;20489;-63
2022/03/13 15:40:11;;;;;;;17.92;10.50;;;;;;;;;;5030452;28;20473;-63
2022/03/13 15:42:37;;;;;;;46.72;21.63;;;;;;;;;;5030122;28;20038;-63
2022/03/13 15:45:04;;;;;;;35.20;15.98;;;;;;;;;;5030424;28;20028;-63
2022/03/13 15:47:31;;;;;;;58.72;26.67;;;;;;;;;;5030549;28;20029;-63
2022/03/13 15:49:57;;;;;;;26.90;12.45;;;;;;;;;;5061756;28;20408;-63
2022/03/13 15:52:25;;;;;;;26.95;14.02;;;;;;;;;;5029863;28;20037;-63
2022/03/13 15:54:51;;;;;;;24.33;12.48;;;;;;;;;;5030225;28;20029;-63
2022/03/13 15:57:19;;;;;;;22.83;12.98;;;;;;;;;;5030062;28;20045;-63
2022/03/13 15:59:45;;;;;;;40.95;19.50;;;;;;;;;;5030112;28;20021;-63
2022/03/13 16:02:11;;;;;;;73.78;26.40;;;;;;;;;;5061859;28;20024;-63
2022/03/13 16:04:38;;;;;;;30.85;15.70;;;;;;;;;;5030069;28;20026;-63
2022/03/13 16:07:04;;;;;;;29.65;16.10;;;;;;;;;;5030146;28;20022;-63
2022/03/13 16:09:30;;;;;;;33.70;15.05;;;;;;;;;;5029510;28;20688;-63
2022/03/13 16:11:56;;;;;;;22.83;11.35;;;;;;;;;;5029634;28;20471;-63
2022/03/13 16:14:22;;;;;;;20.15;9.75;;;;;;;;;;5029290;28;20478;-63
2022/03/13 16:16:48;;;;;;;19.33;10.93;;;;;;;;;;5029965;28;20045;-63
2022/03/13 16:19:14;;;;;;;21.88;10.85;;;;;;;;;;5061873;28;20385;-63
2022/03/13 16:21:42;;;;;;;27.00;13.18;;;;;;;;;;5029695;28;20025;-63
2022/03/13 16:24:09;;;;;;;22.65;11.77;;;;;;;;;;5029782;28;20026;-63
2022/03/13 16:26:37;;;;;;;21.98;11.38;;;;;;;;;;5061942;28;20742;-63
2022/03/13 16:29:03;;;;;;;28.80;15.05;;;;;;;;;;5029582;28;20083;-63
2022/03/13 16:31:29;;;;;;;24.20;13.35;;;;;;;;;;5029780;28;20105;-63
2022/03/13 16:33:55;;;;;;;26.38;14.50;;;;;;;;;;5030753;28;20048;-63
2022/03/13 16:36:21;;;;;;;24.42;12.95;;;;;;;;;;5033671;28;20049;-63
2022/03/13 16:38:47;;;;;;;33.63;15.68;;;;;;;;;;5033246;28;20033;-63
2022/03/13 16:41:14;;;;;;;34.90;17.63;;;;;;;;;;5033507;28;20025;-64
2022/03/13 16:43:40;;;;;;;31.85;15.65;;;;;;;;;;5033190;28;20036;-64
2022/03/13 16:46:07;;;;;;;35.00;18.95;;;;;;;;;;5033318;28;20021;-65
2022/03/13 16:48:33;;;;;;;36.00;19.58;;;;;;;;;;5033318;28;20156;-64
2022/03/13 16:50:59;;;;;;;39.22;19.48;;;;;;;;;;5033161;28;20029;-65
2022/03/13 16:53:25;;;;;;;37.92;20.48;;;;;;;;;;5065159;28;20090;-64
2022/03/13 16:55:52;;;;;;;54.35;26.27;;;;;;;;;;5033573;28;20504;-65
2022/03/13 16:58:19;;;;;;;57.15;26.70;;;;;;;;;;5032808;28;20026;-64